sensor_id;sensor_type;location;lat;lon;timestamp;temperature;humidity
37002;DHT22;22913;51.910;8.374;2022-08-05T00:01:57;23.20;99.90
37002;DHT22;22913;51.910;8.374;2022-08-05T00:04:42;23.20;99.90
37002;DHT22;22913;51.910;8.374;2022-08-05T00:07:29;23.20;99.90
37002;DHT22;22913;51.910;8.374;2022-08-05T00:10:15;23.20;99.90
37002;DHT22;22913;51.910;8.374;2022-08-05T00:13:00;23.10;99.90
37002;DHT22;22913;51.910;8.374;2022-08-05T00:15:46;23.20;99.90
37002;DHT22;22913;51.910;8.374;2022-08-05T00:18:33;23.20;99.90
37002;DHT22;22913;51.910;8.374;2022-08-05T00:21:19;23.20;99.90
37002;DHT22;22913;51.910;8.374;2022-08-05T00:24:05;23.20;99.90
37002;DHT22;22913;51.910;8.374;2022-08-05T00:26:51;23.20;99.90
37002;DHT22;22913;51.910;8.374;2022-08-05T00:29:36;23.20;99.90
37002;DHT22;22913;51.910;8.374;2022-08-05T00:32:22;23.20;99.90
37002;DHT22;22913;51.910;8.374;2022-08-05T00:35:09;23.20;99.90
37002;DHT22;22913;51.910;8.374;2022-08-05T00:37:54;23.10;99.90
37002;DHT22;22913;51.910;8.374;2022-08-05T00:40:45;23.10;99.90
37002;DHT22;22913;51.910;8.374;2022-08-05T00:43:31;23.10;99.90
37002;DHT22;22913;51.910;8.374;2022-08-05T00:46:17;23.00;99.90
37002;DHT22;22913;51.910;8.374;2022-08-05T00:49:03;23.00;99.90
37002;DHT22;22913;51.910;8.374;2022-08-05T00:51:50;23.00;99.90
37002;DHT22;22913;51.910;8.374;2022-08-05T00:54:36;22.80;99.90
37002;DHT22;22913;51.910;8.374;2022-08-05T00:57:21;22.70;99.90
37002;DHT22;22913;51.910;8.374;2022-08-05T01:00:08;22.60;99.90
37002;DHT22;22913;51.910;8.374;2022-08-05T01:02:55;22.40;99.90
37002;DHT22;22913;51.910;8.374;2022-08-05T01:05:41;22.30;99.90
37002;DHT22;22913;51.910;8.374;2022-08-05T01:08:28;22.30;99.90
37002;DHT22;22913;51.910;8.374;2022-08-05T01:11:17;22.20;99.90
37002;DHT22;22913;51.910;8.374;2022-08-05T01:14:05;22.20;99.90
37002;DHT22;22913;51.910;8.374;2022-08-05T01:16:58;22.20;99.90
37002;DHT22;22913;51.910;8.374;2022-08-05T01:19:49;22.10;99.90
37002;DHT22;22913;51.910;8.374;2022-08-05T01:22:57;22.10;99.90
37002;DHT22;22913;51.910;8.374;2022-08-05T01:25:53;22.00;99.90
37002;DHT22;22913;51.910;8.374;2022-08-05T01:28:52;21.90;99.90
37002;DHT22;22913;51.910;8.374;2022-08-05T01:31:41;21.70;99.90
37002;DHT22;22913;51.910;8.374;2022-08-05T01:34:31;21.70;99.90
37002;DHT22;22913;51.910;8.374;2022-08-05T01:37:30;21.60;99.90
37002;DHT22;22913;51.910;8.374;2022-08-05T01:40:17;21.50;99.90
37002;DHT22;22913;51.910;8.374;2022-08-05T01:43:04;21.50;99.90
37002;DHT22;22913;51.910;8.374;2022-08-05T01:45:53;21.40;99.90
37002;DHT22;22913;51.910;8.374;2022-08-05T01:48:40;21.30;99.90
37002;DHT22;22913;51.910;8.374;2022-08-05T01:51:27;21.30;99.90
37002;DHT22;22913;51.910;8.374;2022-08-05T01:54:16;21.30;99.90
37002;DHT22;22913;51.910;8.374;2022-08-05T01:57:04;21.20;99.90
37002;DHT22;22913;51.910;8.374;2022-08-05T01:59:51;21.20;99.90
37002;DHT22;22913;51.910;8.374;2022-08-05T02:02:44;21.10;99.90
37002;DHT22;22913;51.910;8.374;2022-08-05T02:05:35;21.10;99.90
37002;DHT22;22913;51.910;8.374;2022-08-05T02:08:22;21.20;99.90
37002;DHT22;22913;51.910;8.374;2022-08-05T02:11:09;21.20;99.90
37002;DHT22;22913;51.910;8.374;2022-08-05T02:14:01;21.20;99.90
37002;DHT22;22913;51.910;8.374;2022-08-05T02:16:52;21.30;99.90
37002;DHT22;22913;51.910;8.374;2022-08-05T02:19:43;21.30;99.90
37002;DHT22;22913;51.910;8.374;2022-08-05T02:22:38;21.30;99.90
37002;DHT22;22913;51.910;8.374;2022-08-05T02:25:27;21.30;99.90
37002;DHT22;22913;51.910;8.374;2022-08-05T02:28:15;21.30;99.90
37002;DHT22;22913;51.910;8.374;2022-08-05T02:31:06;21.40;99.90
37002;DHT22;22913;51.910;8.374;2022-08-05T02:33:55;21.40;99.90
37002;DHT22;22913;51.910;8.374;2022-08-05T02:36:48;21.30;99.90
37002;DHT22;22913;51.910;8.374;2022-08-05T02:39:36;21.30;99.90
37002;DHT22;22913;51.910;8.374;2022-08-05T02:42:22;21.30;99.90
37002;DHT22;22913;51.910;8.374;2022-08-05T02:45:09;21.30;99.90
37002;DHT22;22913;51.910;8.374;2022-08-05T02:47:56;21.30;99.90
37002;DHT22;22913;51.910;8.374;2022-08-05T02:50:42;21.30;99.90
37002;DHT22;22913;51.910;8.374;2022-08-05T02:53:32;21.20;99.90
37002;DHT22;22913;51.910;8.374;2022-08-05T02:56:18;21.20;99.90
37002;DHT22;22913;51.910;8.374;2022-08-05T02:59:05;21.20;99.90
37002;DHT22;22913;51.910;8.374;2022-08-05T03:01:53;21.20;99.90
37002;DHT22;22913;51.910;8.374;2022-08-05T03:04:44;21.10;99.90
37002;DHT22;22913;51.910;8.374;2022-08-05T03:07:31;21.00;99.90
37002;DHT22;22913;51.910;8.374;2022-08-05T03:10:18;21.00;99.90
37002;DHT22;22913;51.910;8.374;2022-08-05T03:13:10;21.00;99.90
37002;DHT22;22913;51.910;8.374;2022-08-05T03:15:56;21.00;99.90
37002;DHT22;22913;51.910;8.374;2022-08-05T03:18:42;20.90;99.90
37002;DHT22;22913;51.910;8.374;2022-08-05T03:21:27;20.80;99.90
37002;DHT22;22913;51.910;8.374;2022-08-05T03:24:13;20.70;99.90
37002;DHT22;22913;51.910;8.374;2022-08-05T03:27:01;20.70;99.90
37002;DHT22;22913;51.910;8.374;2022-08-05T03:29:47;20.70;99.90
37002;DHT22;22913;51.910;8.374;2022-08-05T03:32:33;20.60;99.90
37002;DHT22;22913;51.910;8.374;2022-08-05T03:35:19;20.60;99.90
37002;DHT22;22913;51.910;8.374;2022-08-05T03:38:05;20.50;99.90
37002;DHT22;22913;51.910;8.374;2022-08-05T03:40:51;20.50;99.90
37002;DHT22;22913;51.910;8.374;2022-08-05T03:43:38;20.50;99.90
37002;DHT22;22913;51.910;8.374;2022-08-05T03:46:24;20.50;99.90
37002;DHT22;22913;51.910;8.374;2022-08-05T03:49:10;20.50;99.90
37002;DHT22;22913;51.910;8.374;2022-08-05T03:52:01;20.40;99.90
37002;DHT22;22913;51.910;8.374;2022-08-05T03:54:54;20.40;99.90
37002;DHT22;22913;51.910;8.374;2022-08-05T03:57:43;20.40;99.90
37002;DHT22;22913;51.910;8.374;2022-08-05T04:00:31;20.30;99.90
37002;DHT22;22913;51.910;8.374;2022-08-05T04:03:18;20.40;99.90
37002;DHT22;22913;51.910;8.374;2022-08-05T04:06:05;20.40;99.90
37002;DHT22;22913;51.910;8.374;2022-08-05T04:08:52;20.30;99.90
37002;DHT22;22913;51.910;8.374;2022-08-05T04:11:39;20.30;99.90
37002;DHT22;22913;51.910;8.374;2022-08-05T04:14:25;20.30;99.90
37002;DHT22;22913;51.910;8.374;2022-08-05T04:17:12;20.30;99.90
37002;DHT22;22913;51.910;8.374;2022-08-05T04:19:58;20.20;99.90
37002;DHT22;22913;51.910;8.374;2022-08-05T04:22:43;20.20;99.90
37002;DHT22;22913;51.910;8.374;2022-08-05T04:25:29;20.20;99.90
37002;DHT22;22913;51.910;8.374;2022-08-05T04:28:14;20.20;99.90
37002;DHT22;22913;51.910;8.374;2022-08-05T04:31:00;20.20;99.90
37002;DHT22;22913;51.910;8.374;2022-08-05T04:33:47;20.20;99.90
37002;DHT22;22913;51.910;8.374;2022-08-05T04:36:33;20.10;99.90
37002;DHT22;22913;51.910;8.374;2022-08-05T04:39:18;20.10;99.90
37002;DHT22;22913;51.910;8.374;2022-08-05T04:42:05;20.00;99.90
37002;DHT22;22913;51.910;8.374;2022-08-05T04:44:50;19.90;99.90
37002;DHT22;22913;51.910;8.374;2022-08-05T04:47:36;19.90;99.90
37002;DHT22;22913;51.910;8.374;2022-08-05T04:50:23;19.90;99.90
37002;DHT22;22913;51.910;8.374;2022-08-05T04:53:09;19.80;99.90
37002;DHT22;22913;51.910;8.374;2022-08-05T04:55:55;19.70;99.90
37002;DHT22;22913;51.910;8.374;2022-08-05T04:58:42;19.70;99.90
37002;DHT22;22913;51.910;8.374;2022-08-05T05:01:27;19.60;99.90
37002;DHT22;22913;51.910;8.374;2022-08-05T05:04:13;19.60;99.90
37002;DHT22;22913;51.910;8.374;2022-08-05T05:07:00;19.60;99.90
37002;DHT22;22913;51.910;8.374;2022-08-05T05:09:45;19.60;99.90
37002;DHT22;22913;51.910;8.374;2022-08-05T05:12:31;19.60;99.90
37002;DHT22;22913;51.910;8.374;2022-08-05T05:15:17;19.50;99.90
37002;DHT22;22913;51.910;8.374;2022-08-05T05:18:03;19.50;99.90
37002;DHT22;22913;51.910;8.374;2022-08-05T05:20:49;19.40;99.90
37002;DHT22;22913;51.910;8.374;2022-08-05T05:23:35;19.40;99.90
37002;DHT22;22913;51.910;8.374;2022-08-05T05:26:21;19.40;99.90
37002;DHT22;22913;51.910;8.374;2022-08-05T05:29:06;19.40;99.90
37002;DHT22;22913;51.910;8.374;2022-08-05T05:31:52;19.40;99.90
37002;DHT22;22913;51.910;8.374;2022-08-05T05:34:40;19.40;99.90
37002;DHT22;22913;51.910;8.374;2022-08-05T05:37:25;19.40;99.90
37002;DHT22;22913;51.910;8.374;2022-08-05T05:40:15;19.30;99.90
37002;DHT22;22913;51.910;8.374;2022-08-05T05:43:00;19.30;99.90
37002;DHT22;22913;51.910;8.374;2022-08-05T05:45:46;19.40;99.90
37002;DHT22;22913;51.910;8.374;2022-08-05T05:48:32;19.30;99.90
37002;DHT22;22913;51.910;8.374;2022-08-05T05:51:19;19.40;99.90
37002;DHT22;22913;51.910;8.374;2022-08-05T05:54:05;19.40;99.90
37002;DHT22;22913;51.910;8.374;2022-08-05T05:56:52;19.40;99.90
37002;DHT22;22913;51.910;8.374;2022-08-05T05:59:37;19.50;99.90
37002;DHT22;22913;51.910;8.374;2022-08-05T06:02:23;19.40;99.90
37002;DHT22;22913;51.910;8.374;2022-08-05T06:05:10;19.40;99.90
37002;DHT22;22913;51.910;8.374;2022-08-05T06:07:56;19.40;99.90
37002;DHT22;22913;51.910;8.374;2022-08-05T06:10:41;19.40;99.90
37002;DHT22;22913;51.910;8.374;2022-08-05T06:13:28;19.50;99.90
37002;DHT22;22913;51.910;8.374;2022-08-05T06:16:13;19.50;99.90
37002;DHT22;22913;51.910;8.374;2022-08-05T06:18:59;19.60;99.90
37002;DHT22;22913;51.910;8.374;2022-08-05T06:21:45;19.50;99.90
37002;DHT22;22913;51.910;8.374;2022-08-05T06:24:30;19.50;99.90
37002;DHT22;22913;51.910;8.374;2022-08-05T06:27:16;19.50;99.90
37002;DHT22;22913;51.910;8.374;2022-08-05T06:30:04;19.50;99.90
37002;DHT22;22913;51.910;8.374;2022-08-05T06:32:50;19.50;99.90
37002;DHT22;22913;51.910;8.374;2022-08-05T06:35:35;19.50;99.90
37002;DHT22;22913;51.910;8.374;2022-08-05T06:38:21;19.60;99.90
37002;DHT22;22913;51.910;8.374;2022-08-05T06:41:07;19.60;99.90
37002;DHT22;22913;51.910;8.374;2022-08-05T06:43:52;19.60;99.90
37002;DHT22;22913;51.910;8.374;2022-08-05T06:46:40;19.60;99.90
37002;DHT22;22913;51.910;8.374;2022-08-05T06:49:25;19.60;99.90
37002;DHT22;22913;51.910;8.374;2022-08-05T06:52:11;19.70;99.90
37002;DHT22;22913;51.910;8.374;2022-08-05T06:54:57;19.80;99.90
37002;DHT22;22913;51.910;8.374;2022-08-05T06:57:42;19.80;99.90
37002;DHT22;22913;51.910;8.374;2022-08-05T07:00:28;19.80;99.90
37002;DHT22;22913;51.910;8.374;2022-08-05T07:03:15;19.80;99.90
37002;DHT22;22913;51.910;8.374;2022-08-05T07:06:01;19.80;99.90
37002;DHT22;22913;51.910;8.374;2022-08-05T07:08:48;19.80;99.90
37002;DHT22;22913;51.910;8.374;2022-08-05T07:11:34;19.80;99.90
37002;DHT22;22913;51.910;8.374;2022-08-05T07:14:20;19.90;99.90
37002;DHT22;22913;51.910;8.374;2022-08-05T07:17:23;19.90;99.90
37002;DHT22;22913;51.910;8.374;2022-08-05T07:20:11;20.00;99.90
37002;DHT22;22913;51.910;8.374;2022-08-05T07:22:56;20.00;99.90
37002;DHT22;22913;51.910;8.374;2022-08-05T07:25:42;20.10;99.90
37002;DHT22;22913;51.910;8.374;2022-08-05T07:28:28;20.10;99.90
37002;DHT22;22913;51.910;8.374;2022-08-05T07:31:13;20.20;99.90
37002;DHT22;22913;51.910;8.374;2022-08-05T07:33:59;20.10;99.90
37002;DHT22;22913;51.910;8.374;2022-08-05T07:36:46;20.60;99.90
37002;DHT22;22913;51.910;8.374;2022-08-05T07:39:32;21.20;99.90
37002;DHT22;22913;51.910;8.374;2022-08-05T07:42:17;21.70;99.90
37002;DHT22;22913;51.910;8.374;2022-08-05T07:45:03;22.20;99.90
37002;DHT22;22913;51.910;8.374;2022-08-05T07:47:49;22.40;99.90
37002;DHT22;22913;51.910;8.374;2022-08-05T07:50:36;22.70;99.90
37002;DHT22;22913;51.910;8.374;2022-08-05T07:53:23;22.90;99.90
37002;DHT22;22913;51.910;8.374;2022-08-05T07:56:08;23.10;99.90
37002;DHT22;22913;51.910;8.374;2022-08-05T07:58:54;23.40;99.90
37002;DHT22;22913;51.910;8.374;2022-08-05T08:01:40;23.60;99.90
37002;DHT22;22913;51.910;8.374;2022-08-05T08:04:25;23.90;99.90
37002;DHT22;22913;51.910;8.374;2022-08-05T08:07:11;24.00;99.90
37002;DHT22;22913;51.910;8.374;2022-08-05T08:09:58;24.10;99.90
37002;DHT22;22913;51.910;8.374;2022-08-05T08:12:44;24.20;99.90
37002;DHT22;22913;51.910;8.374;2022-08-05T08:15:30;24.20;99.90
37002;DHT22;22913;51.910;8.374;2022-08-05T08:18:16;24.30;99.90
37002;DHT22;22913;51.910;8.374;2022-08-05T08:21:01;24.30;99.90
37002;DHT22;22913;51.910;8.374;2022-08-05T08:23:47;24.30;99.90
37002;DHT22;22913;51.910;8.374;2022-08-05T08:26:34;24.30;99.90
37002;DHT22;22913;51.910;8.374;2022-08-05T08:29:19;24.30;99.90
37002;DHT22;22913;51.910;8.374;2022-08-05T08:32:05;24.30;99.90
37002;DHT22;22913;51.910;8.374;2022-08-05T08:34:51;24.30;99.90
37002;DHT22;22913;51.910;8.374;2022-08-05T08:37:36;24.40;99.90
37002;DHT22;22913;51.910;8.374;2022-08-05T08:40:22;24.40;99.90
37002;DHT22;22913;51.910;8.374;2022-08-05T08:43:11;24.40;99.90
37002;DHT22;22913;51.910;8.374;2022-08-05T08:45:58;24.00;99.90
37002;DHT22;22913;51.910;8.374;2022-08-05T08:48:46;23.70;99.90
37002;DHT22;22913;51.910;8.374;2022-08-05T08:51:34;23.80;99.90
37002;DHT22;22913;51.910;8.374;2022-08-05T08:54:21;23.90;99.90
37002;DHT22;22913;51.910;8.374;2022-08-05T08:57:07;23.90;99.90
37002;DHT22;22913;51.910;8.374;2022-08-05T08:59:54;24.00;99.90
37002;DHT22;22913;51.910;8.374;2022-08-05T09:02:43;24.10;99.90
37002;DHT22;22913;51.910;8.374;2022-08-05T09:05:29;24.10;99.90
37002;DHT22;22913;51.910;8.374;2022-08-05T09:08:15;24.10;99.90
37002;DHT22;22913;51.910;8.374;2022-08-05T09:11:02;24.10;99.90
37002;DHT22;22913;51.910;8.374;2022-08-05T09:13:48;24.20;99.90
37002;DHT22;22913;51.910;8.374;2022-08-05T09:16:37;24.20;99.90
37002;DHT22;22913;51.910;8.374;2022-08-05T09:19:23;24.20;99.90
37002;DHT22;22913;51.910;8.374;2022-08-05T09:22:09;24.20;99.90
37002;DHT22;22913;51.910;8.374;2022-08-05T09:24:58;24.30;99.90
37002;DHT22;22913;51.910;8.374;2022-08-05T09:27:44;24.30;99.90
37002;DHT22;22913;51.910;8.374;2022-08-05T09:30:29;24.30;99.90
37002;DHT22;22913;51.910;8.374;2022-08-05T09:33:17;24.40;99.90
37002;DHT22;22913;51.910;8.374;2022-08-05T09:36:04;24.40;99.90
37002;DHT22;22913;51.910;8.374;2022-08-05T09:38:58;24.40;99.90
37002;DHT22;22913;51.910;8.374;2022-08-05T09:41:56;24.40;99.90
37002;DHT22;22913;51.910;8.374;2022-08-05T09:44:44;24.30;99.90
37002;DHT22;22913;51.910;8.374;2022-08-05T09:47:29;24.30;99.90
37002;DHT22;22913;51.910;8.374;2022-08-05T09:50:19;24.40;99.90
37002;DHT22;22913;51.910;8.374;2022-08-05T09:53:04;24.30;99.90
37002;DHT22;22913;51.910;8.374;2022-08-05T09:55:54;24.20;99.90
37002;DHT22;22913;51.910;8.374;2022-08-05T09:58:40;24.10;99.90
37002;DHT22;22913;51.910;8.374;2022-08-05T10:01:26;24.10;99.90
37002;DHT22;22913;51.910;8.374;2022-08-05T10:04:14;24.00;99.90
37002;DHT22;22913;51.910;8.374;2022-08-05T10:07:00;24.10;99.90
37002;DHT22;22913;51.910;8.374;2022-08-05T10:09:53;24.10;99.90
37002;DHT22;22913;51.910;8.374;2022-08-05T10:12:40;24.00;99.90
37002;DHT22;22913;51.910;8.374;2022-08-05T10:15:27;24.00;99.90
37002;DHT22;22913;51.910;8.374;2022-08-05T10:18:15;23.90;99.90
37002;DHT22;22913;51.910;8.374;2022-08-05T10:21:04;23.90;99.90
37002;DHT22;22913;51.910;8.374;2022-08-05T10:23:53;23.80;99.90
37002;DHT22;22913;51.910;8.374;2022-08-05T10:26:39;23.80;99.90
37002;DHT22;22913;51.910;8.374;2022-08-05T10:29:25;23.80;99.90
37002;DHT22;22913;51.910;8.374;2022-08-05T10:32:12;23.80;99.90
37002;DHT22;22913;51.910;8.374;2022-08-05T10:34:59;23.70;99.90
37002;DHT22;22913;51.910;8.374;2022-08-05T10:37:46;23.60;99.90
37002;DHT22;22913;51.910;8.374;2022-08-05T10:40:36;23.50;99.90
37002;DHT22;22913;51.910;8.374;2022-08-05T10:43:32;23.40;99.90
37002;DHT22;22913;51.910;8.374;2022-08-05T10:46:20;23.40;99.90
37002;DHT22;22913;51.910;8.374;2022-08-05T10:49:06;23.50;99.90
37002;DHT22;22913;51.910;8.374;2022-08-05T10:51:53;23.50;99.90
37002;DHT22;22913;51.910;8.374;2022-08-05T10:55:00;23.30;99.90
37002;DHT22;22913;51.910;8.374;2022-08-05T10:57:47;23.40;99.90
37002;DHT22;22913;51.910;8.374;2022-08-05T11:00:34;23.50;99.90
37002;DHT22;22913;51.910;8.374;2022-08-05T11:03:19;23.50;99.90
37002;DHT22;22913;51.910;8.374;2022-08-05T11:06:08;23.60;99.90
37002;DHT22;22913;51.910;8.374;2022-08-05T11:09:15;23.60;99.90
37002;DHT22;22913;51.910;8.374;2022-08-05T11:12:01;23.70;99.90
37002;DHT22;22913;51.910;8.374;2022-08-05T11:15:04;23.70;99.90
37002;DHT22;22913;51.910;8.374;2022-08-05T11:17:51;23.50;99.90
37002;DHT22;22913;51.910;8.374;2022-08-05T11:20:39;23.40;99.90
37002;DHT22;22913;51.910;8.374;2022-08-05T11:23:27;23.40;99.90
37002;DHT22;22913;51.910;8.374;2022-08-05T11:26:20;23.40;99.90
37002;DHT22;22913;51.910;8.374;2022-08-05T11:29:05;23.30;99.90
37002;DHT22;22913;51.910;8.374;2022-08-05T11:32:22;23.10;99.90
37002;DHT22;22913;51.910;8.374;2022-08-05T11:38:50;23.10;99.90
37002;DHT22;22913;51.910;8.374;2022-08-05T11:41:38;23.30;99.90
37002;DHT22;22913;51.910;8.374;2022-08-05T11:44:24;23.50;99.90
37002;DHT22;22913;51.910;8.374;2022-08-05T11:47:22;23.60;99.90
37002;DHT22;22913;51.910;8.374;2022-08-05T11:50:07;23.70;99.90
37002;DHT22;22913;51.910;8.374;2022-08-05T11:52:53;23.80;99.90
37002;DHT22;22913;51.910;8.374;2022-08-05T11:55:52;23.80;99.90
37002;DHT22;22913;51.910;8.374;2022-08-05T11:58:39;23.90;99.90
37002;DHT22;22913;51.910;8.374;2022-08-05T12:01:24;23.90;99.90
37002;DHT22;22913;51.910;8.374;2022-08-05T12:04:12;23.90;99.90
37002;DHT22;22913;51.910;8.374;2022-08-05T12:06:58;24.00;99.90
37002;DHT22;22913;51.910;8.374;2022-08-05T12:09:48;24.00;99.90
37002;DHT22;22913;51.910;8.374;2022-08-05T12:12:33;24.00;99.90
37002;DHT22;22913;51.910;8.374;2022-08-05T12:15:20;24.10;99.90
37002;DHT22;22913;51.910;8.374;2022-08-05T12:18:05;24.10;99.90
37002;DHT22;22913;51.910;8.374;2022-08-05T12:20:52;24.20;99.90
37002;DHT22;22913;51.910;8.374;2022-08-05T12:23:38;24.20;99.90
37002;DHT22;22913;51.910;8.374;2022-08-05T12:26:28;24.20;99.90
37002;DHT22;22913;51.910;8.374;2022-08-05T12:29:15;24.20;99.90
37002;DHT22;22913;51.910;8.374;2022-08-05T12:32:01;24.20;99.90
37002;DHT22;22913;51.910;8.374;2022-08-05T12:34:47;24.20;99.90
37002;DHT22;22913;51.910;8.374;2022-08-05T12:37:34;24.20;99.90
37002;DHT22;22913;51.910;8.374;2022-08-05T12:40:20;24.10;99.90
37002;DHT22;22913;51.910;8.374;2022-08-05T12:43:08;24.10;99.90
37002;DHT22;22913;51.910;8.374;2022-08-05T12:45:55;24.20;99.90
37002;DHT22;22913;51.910;8.374;2022-08-05T12:48:40;24.20;99.90
37002;DHT22;22913;51.910;8.374;2022-08-05T12:51:27;24.20;99.90
37002;DHT22;22913;51.910;8.374;2022-08-05T12:54:20;24.40;99.90
37002;DHT22;22913;51.910;8.374;2022-08-05T12:57:07;24.50;99.90
37002;DHT22;22913;51.910;8.374;2022-08-05T12:59:54;24.70;99.90
37002;DHT22;22913;51.910;8.374;2022-08-05T13:02:39;24.80;99.90
37002;DHT22;22913;51.910;8.374;2022-08-05T13:05:25;25.00;99.90
37002;DHT22;22913;51.910;8.374;2022-08-05T13:08:11;25.20;99.90
37002;DHT22;22913;51.910;8.374;2022-08-05T13:11:00;25.50;99.90
37002;DHT22;22913;51.910;8.374;2022-08-05T13:13:48;25.70;99.90
37002;DHT22;22913;51.910;8.374;2022-08-05T13:16:50;25.90;99.90
37002;DHT22;22913;51.910;8.374;2022-08-05T13:19:37;26.00;99.90
37002;DHT22;22913;51.910;8.374;2022-08-05T13:22:23;25.40;99.90
37002;DHT22;22913;51.910;8.374;2022-08-05T13:25:10;25.20;99.90
37002;DHT22;22913;51.910;8.374;2022-08-05T13:27:58;25.40;99.90
37002;DHT22;22913;51.910;8.374;2022-08-05T13:30:47;25.80;99.90
37002;DHT22;22913;51.910;8.374;2022-08-05T13:33:32;26.00;99.90
37002;DHT22;22913;51.910;8.374;2022-08-05T13:36:18;25.90;99.90
37002;DHT22;22913;51.910;8.374;2022-08-05T13:39:05;25.90;99.90
37002;DHT22;22913;51.910;8.374;2022-08-05T13:41:51;26.00;99.90
37002;DHT22;22913;51.910;8.374;2022-08-05T13:44:38;26.00;99.90
37002;DHT22;22913;51.910;8.374;2022-08-05T13:47:24;26.00;99.90
37002;DHT22;22913;51.910;8.374;2022-08-05T13:50:10;25.70;99.90
37002;DHT22;22913;51.910;8.374;2022-08-05T13:52:56;25.80;99.90
37002;DHT22;22913;51.910;8.374;2022-08-05T13:55:41;26.20;99.90
37002;DHT22;22913;51.910;8.374;2022-08-05T13:58:27;26.40;99.90
37002;DHT22;22913;51.910;8.374;2022-08-05T14:01:14;26.30;99.90
37002;DHT22;22913;51.910;8.374;2022-08-05T14:04:00;26.40;99.90
37002;DHT22;22913;51.910;8.374;2022-08-05T14:07:03;26.30;99.90
37002;DHT22;22913;51.910;8.374;2022-08-05T14:09:49;26.30;99.90
37002;DHT22;22913;51.910;8.374;2022-08-05T14:12:34;26.10;99.90
37002;DHT22;22913;51.910;8.374;2022-08-05T14:15:20;25.70;99.90
37002;DHT22;22913;51.910;8.374;2022-08-05T14:18:07;25.70;99.90
37002;DHT22;22913;51.910;8.374;2022-08-05T14:20:53;25.70;99.90
37002;DHT22;22913;51.910;8.374;2022-08-05T14:23:39;25.80;99.90
37002;DHT22;22913;51.910;8.374;2022-08-05T14:26:24;25.90;99.90
37002;DHT22;22913;51.910;8.374;2022-08-05T14:29:10;26.00;99.90
37002;DHT22;22913;51.910;8.374;2022-08-05T14:31:56;25.80;99.90
37002;DHT22;22913;51.910;8.374;2022-08-05T14:34:43;25.70;99.90
37002;DHT22;22913;51.910;8.374;2022-08-05T14:37:28;25.70;99.90
37002;DHT22;22913;51.910;8.374;2022-08-05T14:40:14;25.50;99.90
37002;DHT22;22913;51.910;8.374;2022-08-05T14:42:59;25.30;99.90
37002;DHT22;22913;51.910;8.374;2022-08-05T14:45:45;25.20;99.90
37002;DHT22;22913;51.910;8.374;2022-08-05T14:48:31;25.30;99.90
37002;DHT22;22913;51.910;8.374;2022-08-05T14:51:18;25.40;99.90
37002;DHT22;22913;51.910;8.374;2022-08-05T14:54:05;25.90;99.90
37002;DHT22;22913;51.910;8.374;2022-08-05T14:56:50;26.10;99.90
37002;DHT22;22913;51.910;8.374;2022-08-05T14:59:36;26.10;99.90
37002;DHT22;22913;51.910;8.374;2022-08-05T15:02:22;25.30;99.90
37002;DHT22;22913;51.910;8.374;2022-08-05T15:05:08;25.20;99.90
37002;DHT22;22913;51.910;8.374;2022-08-05T15:07:55;25.30;99.90
37002;DHT22;22913;51.910;8.374;2022-08-05T15:10:41;25.40;99.90
37002;DHT22;22913;51.910;8.374;2022-08-05T15:13:27;25.30;99.90
37002;DHT22;22913;51.910;8.374;2022-08-05T15:16:12;25.70;99.90
37002;DHT22;22913;51.910;8.374;2022-08-05T15:18:58;25.80;99.90
37002;DHT22;22913;51.910;8.374;2022-08-05T15:21:43;25.70;99.90
37002;DHT22;22913;51.910;8.374;2022-08-05T15:24:30;25.30;99.90
37002;DHT22;22913;51.910;8.374;2022-08-05T15:27:16;25.20;99.90
37002;DHT22;22913;51.910;8.374;2022-08-05T15:30:02;25.20;99.90
37002;DHT22;22913;51.910;8.374;2022-08-05T15:32:48;24.80;99.90
37002;DHT22;22913;51.910;8.374;2022-08-05T15:35:34;24.80;99.90
37002;DHT22;22913;51.910;8.374;2022-08-05T15:38:20;25.00;99.90
37002;DHT22;22913;51.910;8.374;2022-08-05T15:41:07;25.00;99.90
37002;DHT22;22913;51.910;8.374;2022-08-05T15:43:53;25.20;99.90
37002;DHT22;22913;51.910;8.374;2022-08-05T15:46:38;25.40;99.90
37002;DHT22;22913;51.910;8.374;2022-08-05T15:49:24;25.30;99.90
37002;DHT22;22913;51.910;8.374;2022-08-05T15:52:10;25.30;99.90
37002;DHT22;22913;51.910;8.374;2022-08-05T15:54:56;25.20;99.90
37002;DHT22;22913;51.910;8.374;2022-08-05T15:57:43;25.00;99.90
37002;DHT22;22913;51.910;8.374;2022-08-05T16:00:29;24.90;99.90
37002;DHT22;22913;51.910;8.374;2022-08-05T16:03:14;24.80;99.90
37002;DHT22;22913;51.910;8.374;2022-08-05T16:06:00;24.60;99.90
37002;DHT22;22913;51.910;8.374;2022-08-05T16:08:46;24.70;99.90
37002;DHT22;22913;51.910;8.374;2022-08-05T16:11:34;25.00;99.90
37002;DHT22;22913;51.910;8.374;2022-08-05T16:14:21;25.00;99.90
37002;DHT22;22913;51.910;8.374;2022-08-05T16:17:07;25.00;99.90
37002;DHT22;22913;51.910;8.374;2022-08-05T16:19:53;25.20;99.90
37002;DHT22;22913;51.910;8.374;2022-08-05T16:22:39;25.20;99.90
37002;DHT22;22913;51.910;8.374;2022-08-05T16:25:25;25.30;99.90
37002;DHT22;22913;51.910;8.374;2022-08-05T16:28:10;25.40;99.90
37002;DHT22;22913;51.910;8.374;2022-08-05T16:30:58;25.40;99.90
37002;DHT22;22913;51.910;8.374;2022-08-05T16:33:43;25.70;99.90
37002;DHT22;22913;51.910;8.374;2022-08-05T16:36:29;25.90;99.90
37002;DHT22;22913;51.910;8.374;2022-08-05T16:39:15;26.20;99.90
37002;DHT22;22913;51.910;8.374;2022-08-05T16:42:01;26.40;99.90
37002;DHT22;22913;51.910;8.374;2022-08-05T16:44:46;26.60;99.90
37002;DHT22;22913;51.910;8.374;2022-08-05T16:47:35;26.80;99.90
37002;DHT22;22913;51.910;8.374;2022-08-05T16:50:21;27.00;99.90
37002;DHT22;22913;51.910;8.374;2022-08-05T16:53:06;27.10;99.90
37002;DHT22;22913;51.910;8.374;2022-08-05T16:55:52;27.00;99.90
37002;DHT22;22913;51.910;8.374;2022-08-05T16:58:38;26.90;99.90
37002;DHT22;22913;51.910;8.374;2022-08-05T17:01:24;27.00;99.90
37002;DHT22;22913;51.910;8.374;2022-08-05T17:04:11;27.00;99.90
37002;DHT22;22913;51.910;8.374;2022-08-05T17:06:57;27.00;99.90
37002;DHT22;22913;51.910;8.374;2022-08-05T17:09:44;27.00;99.90
37002;DHT22;22913;51.910;8.374;2022-08-05T17:12:29;27.00;99.90
37002;DHT22;22913;51.910;8.374;2022-08-05T17:15:15;26.90;99.90
37002;DHT22;22913;51.910;8.374;2022-08-05T17:18:01;26.80;99.90
37002;DHT22;22913;51.910;8.374;2022-08-05T17:20:48;26.70;99.90
37002;DHT22;22913;51.910;8.374;2022-08-05T17:23:34;26.70;99.90
37002;DHT22;22913;51.910;8.374;2022-08-05T17:26:19;26.70;99.90
37002;DHT22;22913;51.910;8.374;2022-08-05T17:29:24;26.70;99.90
37002;DHT22;22913;51.910;8.374;2022-08-05T17:32:10;26.50;99.90
37002;DHT22;22913;51.910;8.374;2022-08-05T17:34:56;26.40;99.90
37002;DHT22;22913;51.910;8.374;2022-08-05T17:37:43;26.40;99.90
37002;DHT22;22913;51.910;8.374;2022-08-05T17:40:29;26.30;99.90